JBU890 KORD-KBOS
Flight info
| Callsign | JBU890 |
|---|---|
| Flight time | 1h 46m |
| Altitude | 35000 |
| Route | EBAKE WISMO POSTS PADDE SVM DKK PONCT JFUND2 |
| Aircraft | A21N/M-SDE2E3FGHIRWXY/LB1 |
Departure
| Time | 2026-05-05 22:23 |
|---|---|
| Airport | Chicago O'Hare International Airport (KORD) |
Arrival
| Time | 2026-05-06 00:09 |
|---|---|
| Airport | Boston Logan International Airport (KBOS) |
| Time | Latitude | Longitude | Altitude | Speed | Heading |
|---|---|---|---|---|---|
| 2026-05-05 21:56 | 41.97707 | -87.89297 | 659 ft | 0 kts | 73° |
| 2026-05-05 22:08 | 41.97703 | -87.89321 | 659 ft | 3 kts | 105° |
| 2026-05-05 22:08 | 41.97707 | -87.89345 | 659 ft | 3 kts | 113° |
| 2026-05-05 22:08 | 41.97712 | -87.89369 | 659 ft | 3 kts | 123° |
| 2026-05-05 22:08 | 41.97724 | -87.89387 | 659 ft | 3 kts | 147° |
| 2026-05-05 22:09 | 41.97733 | -87.89392 | 659 ft | 0 kts | 182° |
| 2026-05-05 22:11 | 41.97726 | -87.89394 | 659 ft | 2 kts | 194° |
| 2026-05-05 22:12 | 41.97704 | -87.89406 | 659 ft | 5 kts | 202° |
| 2026-05-05 22:12 | 41.97669 | -87.89417 | 660 ft | 3 kts | 190° |
| 2026-05-05 22:12 | 41.97641 | -87.89429 | 660 ft | 6 kts | 194° |
| 2026-05-05 22:12 | 41.97589 | -87.89433 | 660 ft | 9 kts | 179° |
| 2026-05-05 22:13 | 41.97531 | -87.89431 | 661 ft | 8 kts | 179° |
| 2026-05-05 22:13 | 41.97477 | -87.89431 | 662 ft | 8 kts | 181° |
| 2026-05-05 22:13 | 41.97414 | -87.89432 | 662 ft | 10 kts | 180° |
| 2026-05-05 22:13 | 41.97370 | -87.89432 | 663 ft | 0 kts | 180° |
| 2026-05-05 22:14 | 41.97360 | -87.89432 | 663 ft | 3 kts | 179° |
| 2026-05-05 22:14 | 41.97344 | -87.89432 | 663 ft | 0 kts | 180° |
| 2026-05-05 22:14 | 41.97342 | -87.89432 | 663 ft | 2 kts | 181° |
| 2026-05-05 22:15 | 41.97321 | -87.89437 | 664 ft | 2 kts | 209° |
| 2026-05-05 22:15 | 41.97302 | -87.89465 | 665 ft | 6 kts | 232° |
| 2026-05-05 22:15 | 41.97275 | -87.89513 | 664 ft | 5 kts | 241° |
| 2026-05-05 22:15 | 41.97263 | -87.89549 | 667 ft | 4 kts | 246° |
| 2026-05-05 22:16 | 41.97249 | -87.89587 | 668 ft | 7 kts | 242° |
| 2026-05-05 22:16 | 41.97219 | -87.89665 | 669 ft | 12 kts | 243° |
| 2026-05-05 22:16 | 41.97184 | -87.89756 | 672 ft | 9 kts | 241° |
| 2026-05-05 22:16 | 41.97156 | -87.89834 | 672 ft | 10 kts | 248° |
| 2026-05-05 22:17 | 41.97139 | -87.89934 | 673 ft | 12 kts | 267° |
| 2026-05-05 22:17 | 41.97138 | -87.90049 | 670 ft | 11 kts | 269° |
| 2026-05-05 22:17 | 41.97137 | -87.90153 | 670 ft | 11 kts | 270° |
| 2026-05-05 22:17 | 41.97137 | -87.90252 | 670 ft | 10 kts | 269° |
| 2026-05-05 22:18 | 41.97138 | -87.90341 | 670 ft | 10 kts | 271° |
| 2026-05-05 22:18 | 41.97141 | -87.90436 | 670 ft | 11 kts | 271° |
| 2026-05-05 22:18 | 41.97087 | -87.90485 | 668 ft | 12 kts | 177° |
| 2026-05-05 22:18 | 41.97042 | -87.90396 | 668 ft | 12 kts | 93° |
| 2026-05-05 22:19 | 41.97042 | -87.90302 | 668 ft | 10 kts | 89° |
| 2026-05-05 22:19 | 41.97043 | -87.90214 | 670 ft | 10 kts | 89° |
| 2026-05-05 22:19 | 41.97043 | -87.90116 | 672 ft | 11 kts | 90° |
| 2026-05-05 22:19 | 41.97043 | -87.90004 | 673 ft | 13 kts | 89° |
| 2026-05-05 22:20 | 41.97044 | -87.89869 | 673 ft | 16 kts | 90° |
| 2026-05-05 22:20 | 41.97043 | -87.89714 | 673 ft | 16 kts | 91° |
| 2026-05-05 22:20 | 41.97037 | -87.89587 | 673 ft | 11 kts | 120° |
| 2026-05-05 22:20 | 41.96990 | -87.89567 | 673 ft | 6 kts | 180° |
| 2026-05-05 22:21 | 41.96950 | -87.89567 | 673 ft | 6 kts | 181° |
| 2026-05-05 22:21 | 41.96919 | -87.89596 | 673 ft | 6 kts | 252° |
| 2026-05-05 22:21 | 41.96907 | -87.89657 | 673 ft | 8 kts | 265° |
| 2026-05-05 22:21 | 41.96906 | -87.89969 | 673 ft | 64 kts | 270° |
| 2026-05-05 22:22 | 41.96904 | -87.90861 | 669 ft | 128 kts | 270° |
| 2026-05-05 22:22 | 41.96897 | -87.92298 | 714 ft | 173 kts | 272° |
| 2026-05-05 22:22 | 41.96902 | -87.94010 | 894 ft | 200 kts | 270° |
| 2026-05-05 22:22 | 41.96925 | -87.96011 | 1154 ft | 222 kts | 279° |
| 2026-05-05 22:23 | 41.97426 | -87.97947 | 1981 ft | 221 kts | 303° |
| 2026-05-05 22:23 | 41.98546 | -87.99336 | 2803 ft | 225 kts | 332° |
| 2026-05-05 22:23 | 42.00129 | -87.99774 | 3350 ft | 246 kts | 2° |
| 2026-05-05 22:23 | 42.01793 | -87.99018 | 4084 ft | 262 kts | 31° |
| 2026-05-05 22:24 | 42.03071 | -87.97230 | 4719 ft | 272 kts | 57° |
| 2026-05-05 22:24 | 42.03770 | -87.94856 | 4970 ft | 276 kts | 72° |
| 2026-05-05 22:24 | 42.04225 | -87.92337 | 4992 ft | 278 kts | 76° |
| 2026-05-05 22:24 | 42.04641 | -87.89790 | 5015 ft | 279 kts | 75° |
| 2026-05-05 22:25 | 42.05210 | -87.87319 | 5156 ft | 281 kts | 70° |
| 2026-05-05 22:25 | 42.05851 | -87.84818 | 5865 ft | 284 kts | 69° |
| 2026-05-05 22:25 | 42.06524 | -87.82323 | 6761 ft | 285 kts | 68° |
| 2026-05-05 22:25 | 42.07231 | -87.79787 | 7466 ft | 294 kts | 68° |
| 2026-05-05 22:26 | 42.07973 | -87.77178 | 8136 ft | 303 kts | 68° |
| 2026-05-05 22:26 | 42.08745 | -87.74487 | 8837 ft | 312 kts | 68° |
| 2026-05-05 22:26 | 42.09538 | -87.71726 | 9546 ft | 320 kts | 68° |
| 2026-05-05 22:26 | 42.10353 | -87.68884 | 10163 ft | 331 kts | 68° |
| 2026-05-05 22:27 | 42.11206 | -87.65899 | 10518 ft | 352 kts | 68° |
| 2026-05-05 22:27 | 42.12108 | -87.62729 | 10839 ft | 372 kts | 69° |
| 2026-05-05 22:27 | 42.13041 | -87.59447 | 11289 ft | 386 kts | 69° |
| 2026-05-05 22:27 | 42.14007 | -87.56036 | 11931 ft | 393 kts | 69° |
| 2026-05-05 22:28 | 42.14987 | -87.52569 | 12658 ft | 398 kts | 69° |
| 2026-05-05 22:28 | 42.15980 | -87.49052 | 13387 ft | 403 kts | 69° |
| 2026-05-05 22:28 | 42.16981 | -87.45505 | 14083 ft | 408 kts | 69° |
| 2026-05-05 22:28 | 42.18001 | -87.41887 | 14587 ft | 417 kts | 68° |
| 2026-05-05 22:29 | 42.19040 | -87.38197 | 15201 ft | 422 kts | 68° |
| 2026-05-05 22:29 | 42.20088 | -87.34468 | 15857 ft | 427 kts | 68° |
| 2026-05-05 22:29 | 42.21148 | -87.30696 | 16461 ft | 431 kts | 68° |
| 2026-05-05 22:29 | 42.22200 | -87.26942 | 17076 ft | 436 kts | 68° |
| 2026-05-05 22:30 | 42.23278 | -87.23090 | 17647 ft | 441 kts | 68° |
| 2026-05-05 22:30 | 42.24369 | -87.19187 | 18201 ft | 446 kts | 68° |
| 2026-05-05 22:30 | 42.25470 | -87.15239 | 18685 ft | 451 kts | 68° |
| 2026-05-05 22:30 | 42.26577 | -87.11262 | 19172 ft | 456 kts | 68° |
| 2026-05-05 22:31 | 42.27503 | -87.07142 | 19650 ft | 460 kts | 78° |
| 2026-05-05 22:31 | 42.28006 | -87.02856 | 20135 ft | 464 kts | 84° |
| 2026-05-05 22:31 | 42.28331 | -86.98513 | 20622 ft | 467 kts | 87° |
| 2026-05-05 22:31 | 42.28549 | -86.94174 | 21089 ft | 470 kts | 89° |
| 2026-05-05 22:32 | 42.28716 | -86.89730 | 21502 ft | 475 kts | 90° |
| 2026-05-05 22:32 | 42.28864 | -86.85258 | 21963 ft | 479 kts | 90° |
| 2026-05-05 22:32 | 42.29013 | -86.80735 | 22425 ft | 482 kts | 90° |
| 2026-05-05 22:32 | 42.29170 | -86.76184 | 22887 ft | 486 kts | 90° |
| 2026-05-05 22:33 | 42.29335 | -86.71596 | 23344 ft | 490 kts | 90° |
| 2026-05-05 22:33 | 42.29504 | -86.67026 | 23722 ft | 493 kts | 90° |
| 2026-05-05 22:33 | 42.29680 | -86.62388 | 24076 ft | 497 kts | 90° |
| 2026-05-05 22:33 | 42.29856 | -86.57715 | 24434 ft | 500 kts | 90° |
| 2026-05-05 22:34 | 42.30033 | -86.53005 | 24774 ft | 503 kts | 89° |
| 2026-05-05 22:34 | 42.30209 | -86.48266 | 25110 ft | 506 kts | 90° |
| 2026-05-05 22:34 | 42.30384 | -86.43496 | 25454 ft | 509 kts | 90° |
| 2026-05-05 22:34 | 42.30557 | -86.38705 | 25791 ft | 512 kts | 90° |
| 2026-05-05 22:35 | 42.30727 | -86.33940 | 26116 ft | 514 kts | 90° |
| 2026-05-05 22:35 | 42.30898 | -86.29094 | 26441 ft | 517 kts | 90° |
| 2026-05-05 22:35 | 42.31067 | -86.24231 | 26764 ft | 519 kts | 90° |
| 2026-05-05 22:35 | 42.31236 | -86.19333 | 27079 ft | 522 kts | 90° |
| 2026-05-05 22:36 | 42.31401 | -86.14466 | 27418 ft | 523 kts | 90° |
| 2026-05-05 22:36 | 42.31557 | -86.09550 | 27747 ft | 525 kts | 91° |
| 2026-05-05 22:36 | 42.31610 | -86.04611 | 28015 ft | 527 kts | 93° |
| 2026-05-05 22:36 | 42.31573 | -85.99640 | 28288 ft | 529 kts | 94° |
| 2026-05-05 22:37 | 42.31494 | -85.94651 | 28558 ft | 532 kts | 94° |
| 2026-05-05 22:37 | 42.31404 | -85.89648 | 28895 ft | 532 kts | 94° |
| 2026-05-05 22:37 | 42.31317 | -85.84644 | 29279 ft | 532 kts | 94° |
| 2026-05-05 22:37 | 42.31236 | -85.79647 | 29629 ft | 532 kts | 94° |
| 2026-05-05 22:38 | 42.31161 | -85.74636 | 29958 ft | 533 kts | 94° |
| 2026-05-05 22:38 | 42.31090 | -85.69628 | 30232 ft | 534 kts | 94° |
| 2026-05-05 22:38 | 42.31020 | -85.64601 | 30446 ft | 536 kts | 94° |
| 2026-05-05 22:38 | 42.30949 | -85.59550 | 30669 ft | 537 kts | 94° |
| 2026-05-05 22:39 | 42.30877 | -85.54493 | 30900 ft | 538 kts | 93° |
| 2026-05-05 22:39 | 42.30802 | -85.49493 | 31121 ft | 540 kts | 93° |
| 2026-05-05 22:39 | 42.30725 | -85.44418 | 31340 ft | 541 kts | 93° |
| 2026-05-05 22:39 | 42.30644 | -85.39332 | 31556 ft | 542 kts | 92° |
| 2026-05-05 22:40 | 42.30560 | -85.34240 | 31815 ft | 542 kts | 92° |
| 2026-05-05 22:40 | 42.30474 | -85.29126 | 32010 ft | 543 kts | 92° |
| 2026-05-05 22:40 | 42.30385 | -85.24019 | 32229 ft | 544 kts | 92° |
| 2026-05-05 22:40 | 42.30294 | -85.18881 | 32432 ft | 545 kts | 92° |
| 2026-05-05 22:41 | 42.30202 | -85.13822 | 32632 ft | 546 kts | 92° |
| 2026-05-05 22:41 | 42.30106 | -85.08690 | 32819 ft | 547 kts | 92° |
| 2026-05-05 22:41 | 42.30008 | -85.03538 | 33094 ft | 547 kts | 92° |
| 2026-05-05 22:41 | 42.29899 | -84.98408 | 33463 ft | 543 kts | 92° |
| 2026-05-05 22:42 | 42.29780 | -84.93293 | 33708 ft | 543 kts | 92° |
| 2026-05-05 22:42 | 42.29657 | -84.88237 | 33865 ft | 544 kts | 92° |
| 2026-05-05 22:42 | 42.29529 | -84.83120 | 34018 ft | 545 kts | 92° |
| 2026-05-05 22:42 | 42.29399 | -84.78008 | 34186 ft | 545 kts | 92° |
| 2026-05-05 22:43 | 42.29268 | -84.72897 | 34339 ft | 545 kts | 92° |
| 2026-05-05 22:43 | 42.29134 | -84.67768 | 34480 ft | 545 kts | 92° |
| 2026-05-05 22:43 | 42.29000 | -84.62653 | 34673 ft | 544 kts | 92° |
| 2026-05-05 22:43 | 42.28864 | -84.57553 | 34837 ft | 544 kts | 92° |
| 2026-05-05 22:44 | 42.28725 | -84.52425 | 34859 ft | 545 kts | 92° |
| 2026-05-05 22:44 | 42.28815 | -84.47386 | 34858 ft | 542 kts | 80° |
| 2026-05-05 22:44 | 42.29353 | -84.42350 | 34861 ft | 541 kts | 78° |
| 2026-05-05 22:45 | 42.30679 | -84.32316 | 34851 ft | 541 kts | 76° |
| 2026-05-05 22:45 | 42.32124 | -84.22344 | 34848 ft | 538 kts | 76° |
| 2026-05-05 22:46 | 42.33545 | -84.12479 | 34841 ft | 537 kts | 76° |
| 2026-05-05 22:46 | 42.34945 | -84.02546 | 34846 ft | 537 kts | 77° |
| 2026-05-05 22:47 | 42.36326 | -83.92615 | 34843 ft | 537 kts | 77° |
| 2026-05-05 22:47 | 42.37683 | -83.82768 | 34842 ft | 534 kts | 77° |
| 2026-05-05 22:48 | 42.39034 | -83.72908 | 34841 ft | 533 kts | 77° |
| 2026-05-05 22:48 | 42.40151 | -83.64705 | 34846 ft | 533 kts | 77° |
| 2026-05-05 22:49 | 42.41003 | -83.54757 | 34848 ft | 533 kts | 85° |
| 2026-05-05 22:49 | 42.41449 | -83.44756 | 34843 ft | 530 kts | 87° |
| 2026-05-05 22:50 | 42.41797 | -83.34798 | 34832 ft | 529 kts | 87° |
| 2026-05-05 22:50 | 42.42129 | -83.24851 | 34832 ft | 530 kts | 88° |
| 2026-05-05 22:51 | 42.42464 | -83.14863 | 34825 ft | 531 kts | 88° |
| 2026-05-05 22:51 | 42.42797 | -83.04897 | 34843 ft | 528 kts | 88° |
| 2026-05-05 22:52 | 42.43119 | -82.95029 | 34835 ft | 527 kts | 88° |
| 2026-05-05 22:52 | 42.43434 | -82.85102 | 34842 ft | 527 kts | 88° |
| 2026-05-05 22:53 | 42.43740 | -82.75183 | 34808 ft | 527 kts | 88° |
| 2026-05-05 22:53 | 42.44037 | -82.65257 | 34823 ft | 528 kts | 89° |
| 2026-05-05 22:54 | 42.44326 | -82.55327 | 34828 ft | 528 kts | 89° |
| 2026-05-05 22:54 | 42.44607 | -82.45391 | 34835 ft | 528 kts | 89° |
| 2026-05-05 22:55 | 42.44877 | -82.35518 | 34825 ft | 527 kts | 89° |
| 2026-05-05 22:55 | 42.45139 | -82.25612 | 34832 ft | 525 kts | 89° |
| 2026-05-05 22:56 | 42.45392 | -82.15725 | 34831 ft | 525 kts | 89° |
| 2026-05-05 22:56 | 42.45637 | -82.05840 | 34832 ft | 525 kts | 89° |
| 2026-05-05 22:57 | 42.45872 | -81.96019 | 34833 ft | 525 kts | 89° |
| 2026-05-05 22:57 | 42.46100 | -81.86132 | 34837 ft | 525 kts | 89° |
| 2026-05-05 22:58 | 42.46318 | -81.76311 | 34844 ft | 525 kts | 89° |
| 2026-05-05 22:58 | 42.46529 | -81.66427 | 34847 ft | 524 kts | 89° |
| 2026-05-05 22:59 | 42.46731 | -81.56546 | 34851 ft | 525 kts | 89° |
| 2026-05-05 22:59 | 42.46926 | -81.46654 | 34851 ft | 525 kts | 89° |
| 2026-05-05 23:00 | 42.47200 | -81.31868 | 34856 ft | 525 kts | 89° |
| 2026-05-05 23:00 | 42.47373 | -81.21975 | 34855 ft | 524 kts | 89° |
| 2026-05-05 23:01 | 42.47538 | -81.12120 | 34855 ft | 522 kts | 89° |
| 2026-05-05 23:01 | 42.47692 | -81.02333 | 34858 ft | 522 kts | 89° |
| 2026-05-05 23:02 | 42.47839 | -80.92497 | 34858 ft | 522 kts | 89° |
| 2026-05-05 23:02 | 42.47977 | -80.82663 | 34866 ft | 521 kts | 89° |
| 2026-05-05 23:03 | 42.48107 | -80.72856 | 34873 ft | 520 kts | 89° |
| 2026-05-05 23:03 | 42.48227 | -80.63109 | 34870 ft | 520 kts | 89° |
| 2026-05-05 23:04 | 42.48340 | -80.53307 | 34854 ft | 520 kts | 89° |
| 2026-05-05 23:04 | 42.48445 | -80.43509 | 34876 ft | 518 kts | 89° |
| 2026-05-05 23:05 | 42.48541 | -80.33742 | 34876 ft | 518 kts | 89° |
| 2026-05-05 23:05 | 42.48627 | -80.24045 | 34882 ft | 518 kts | 90° |
| 2026-05-05 23:06 | 42.48706 | -80.14272 | 34883 ft | 518 kts | 90° |
| 2026-05-05 23:06 | 42.48777 | -80.04530 | 34879 ft | 516 kts | 90° |
| 2026-05-05 23:07 | 42.48840 | -79.94787 | 34873 ft | 516 kts | 90° |
| 2026-05-05 23:07 | 42.48894 | -79.85071 | 34873 ft | 516 kts | 90° |
| 2026-05-05 23:08 | 42.48939 | -79.75405 | 34876 ft | 516 kts | 90° |
| 2026-05-05 23:08 | 42.48977 | -79.65690 | 34874 ft | 516 kts | 90° |
| 2026-05-05 23:09 | 42.49006 | -79.55976 | 34876 ft | 515 kts | 90° |
| 2026-05-05 23:09 | 42.49028 | -79.46253 | 34872 ft | 515 kts | 90° |
| 2026-05-05 23:10 | 42.49041 | -79.36546 | 34865 ft | 515 kts | 90° |
| 2026-05-05 23:10 | 42.49166 | -79.26820 | 34868 ft | 514 kts | 84° |
| 2026-05-05 23:11 | 42.49742 | -79.17217 | 34869 ft | 514 kts | 84° |
| 2026-05-05 23:11 | 42.50413 | -79.07556 | 34881 ft | 515 kts | 84° |
| 2026-05-05 23:12 | 42.51098 | -78.97854 | 34859 ft | 516 kts | 84° |
| 2026-05-05 23:12 | 42.51759 | -78.88245 | 34857 ft | 515 kts | 84° |
| 2026-05-05 23:13 | 42.52412 | -78.78548 | 34845 ft | 515 kts | 84° |
| 2026-05-05 23:13 | 42.53053 | -78.68855 | 34854 ft | 515 kts | 84° |
| 2026-05-05 23:14 | 42.53685 | -78.59183 | 34851 ft | 514 kts | 84° |
| 2026-05-05 23:14 | 42.54304 | -78.49578 | 34847 ft | 514 kts | 84° |
| 2026-05-05 23:15 | 42.54921 | -78.39897 | 34847 ft | 514 kts | 84° |
| 2026-05-05 23:15 | 42.55528 | -78.30237 | 34841 ft | 514 kts | 84° |
| 2026-05-05 23:16 | 42.56128 | -78.20550 | 34835 ft | 514 kts | 84° |
| 2026-05-05 23:16 | 42.56716 | -78.10944 | 34835 ft | 514 kts | 85° |
| 2026-05-05 23:17 | 42.57299 | -78.01262 | 34836 ft | 514 kts | 85° |
| 2026-05-05 23:17 | 42.57874 | -77.91583 | 34832 ft | 513 kts | 85° |
| 2026-05-05 23:18 | 42.58440 | -77.81931 | 34843 ft | 513 kts | 85° |
| 2026-05-05 23:18 | 42.58994 | -77.72328 | 34873 ft | 513 kts | 85° |
| 2026-05-05 23:19 | 42.59544 | -77.62651 | 34881 ft | 514 kts | 85° |
| 2026-05-05 23:19 | 42.60085 | -77.52991 | 34864 ft | 513 kts | 85° |
| 2026-05-05 23:20 | 42.60616 | -77.43348 | 34846 ft | 512 kts | 85° |
| 2026-05-05 23:20 | 42.61142 | -77.33693 | 34811 ft | 512 kts | 85° |
| 2026-05-05 23:21 | 42.61658 | -77.24053 | 34815 ft | 512 kts | 85° |
| 2026-05-05 23:21 | 42.62162 | -77.14472 | 34823 ft | 510 kts | 85° |
| 2026-05-05 23:22 | 42.62660 | -77.04847 | 34823 ft | 510 kts | 85° |
| 2026-05-05 23:22 | 42.63149 | -76.95237 | 34823 ft | 509 kts | 85° |
| 2026-05-05 23:23 | 42.63630 | -76.85644 | 34785 ft | 509 kts | 85° |
| 2026-05-05 23:23 | 42.64100 | -76.76103 | 34802 ft | 509 kts | 86° |
| 2026-05-05 23:24 | 42.64565 | -76.66493 | 34815 ft | 509 kts | 86° |
| 2026-05-05 23:24 | 42.65020 | -76.56943 | 34821 ft | 510 kts | 86° |
| 2026-05-05 23:25 | 42.65470 | -76.47311 | 34818 ft | 510 kts | 86° |
| 2026-05-05 23:25 | 42.65910 | -76.37682 | 34823 ft | 509 kts | 86° |
| 2026-05-05 23:26 | 42.66342 | -76.28085 | 34816 ft | 509 kts | 86° |
| 2026-05-05 23:26 | 42.66764 | -76.18535 | 34808 ft | 509 kts | 86° |
| 2026-05-05 23:27 | 42.67180 | -76.08941 | 34792 ft | 507 kts | 86° |
| 2026-05-05 23:27 | 42.67587 | -75.99374 | 34794 ft | 506 kts | 86° |
| 2026-05-05 23:28 | 42.67986 | -75.89795 | 34798 ft | 506 kts | 86° |
| 2026-05-05 23:28 | 42.68375 | -75.80293 | 34808 ft | 506 kts | 86° |
| 2026-05-05 23:29 | 42.68757 | -75.70745 | 34820 ft | 506 kts | 86° |
| 2026-05-05 23:29 | 42.69132 | -75.61185 | 34823 ft | 506 kts | 86° |
| 2026-05-05 23:30 | 42.69437 | -75.53248 | 34828 ft | 506 kts | 86° |
| 2026-05-05 23:30 | 42.69855 | -75.42132 | 34826 ft | 506 kts | 86° |
| 2026-05-05 23:31 | 42.70207 | -75.32539 | 34814 ft | 507 kts | 86° |
| 2026-05-05 23:31 | 42.70551 | -75.22939 | 34806 ft | 507 kts | 86° |
| 2026-05-05 23:32 | 42.70884 | -75.13418 | 34798 ft | 507 kts | 86° |
| 2026-05-05 23:32 | 42.71212 | -75.03830 | 34778 ft | 507 kts | 86° |
| 2026-05-05 23:33 | 42.71531 | -74.94266 | 34785 ft | 505 kts | 86° |
| 2026-05-05 23:33 | 42.71842 | -74.84700 | 34784 ft | 505 kts | 86° |
| 2026-05-05 23:34 | 42.72144 | -74.75155 | 34788 ft | 505 kts | 86° |
| 2026-05-05 23:34 | 42.72439 | -74.65609 | 34785 ft | 505 kts | 86° |
| 2026-05-05 23:35 | 42.72725 | -74.56063 | 34789 ft | 505 kts | 86° |
| 2026-05-05 23:35 | 42.73003 | -74.46566 | 34790 ft | 505 kts | 86° |
| 2026-05-05 23:36 | 42.73273 | -74.37025 | 34787 ft | 505 kts | 86° |
| 2026-05-05 23:36 | 42.73492 | -74.29088 | 34792 ft | 504 kts | 86° |
| 2026-05-05 23:37 | 42.73788 | -74.18006 | 34793 ft | 505 kts | 86° |
| 2026-05-05 23:37 | 42.73996 | -74.10000 | 34790 ft | 505 kts | 86° |
| 2026-05-05 23:38 | 42.74116 | -74.05290 | 34589 ft | 503 kts | 87° |
| 2026-05-05 23:38 | 42.74234 | -74.00535 | 34252 ft | 501 kts | 87° |
| 2026-05-05 23:38 | 42.74350 | -73.95808 | 33354 ft | 499 kts | 87° |
| 2026-05-05 23:38 | 42.74464 | -73.91081 | 32621 ft | 499 kts | 87° |
| 2026-05-05 23:39 | 42.74575 | -73.86393 | 31940 ft | 493 kts | 87° |
| 2026-05-05 23:39 | 42.74677 | -73.81752 | 31267 ft | 487 kts | 89° |
| 2026-05-05 23:39 | 42.74687 | -73.77166 | 30626 ft | 481 kts | 90° |
| 2026-05-05 23:39 | 42.74657 | -73.72702 | 30013 ft | 475 kts | 90° |
| 2026-05-05 23:40 | 42.74621 | -73.68237 | 29333 ft | 469 kts | 91° |
| 2026-05-05 23:40 | 42.74586 | -73.63824 | 28630 ft | 463 kts | 91° |
| 2026-05-05 23:40 | 42.74550 | -73.59479 | 28049 ft | 455 kts | 91° |
| 2026-05-05 23:40 | 42.74515 | -73.55198 | 27404 ft | 449 kts | 91° |
| 2026-05-05 23:41 | 42.74480 | -73.50982 | 26769 ft | 444 kts | 91° |
| 2026-05-05 23:41 | 42.74444 | -73.46787 | 26312 ft | 440 kts | 92° |
| 2026-05-05 23:41 | 42.74407 | -73.42671 | 25862 ft | 436 kts | 92° |
| 2026-05-05 23:41 | 42.74369 | -73.38569 | 25419 ft | 431 kts | 92° |
| 2026-05-05 23:42 | 42.74329 | -73.34498 | 24964 ft | 427 kts | 92° |
| 2026-05-05 23:42 | 42.74289 | -73.30469 | 24511 ft | 424 kts | 92° |
| 2026-05-05 23:42 | 42.74247 | -73.26472 | 24091 ft | 419 kts | 92° |
| 2026-05-05 23:42 | 42.74206 | -73.22531 | 23934 ft | 416 kts | 92° |
| 2026-05-05 23:43 | 42.74163 | -73.18635 | 23997 ft | 419 kts | 92° |
| 2026-05-05 23:43 | 42.74117 | -73.14668 | 24004 ft | 419 kts | 92° |
| 2026-05-05 23:43 | 42.73953 | -73.10716 | 23923 ft | 418 kts | 98° |
| 2026-05-05 23:43 | 42.73561 | -73.06797 | 23918 ft | 417 kts | 101° |
| 2026-05-05 23:44 | 42.73114 | -73.02902 | 23910 ft | 417 kts | 101° |
| 2026-05-05 23:44 | 42.72657 | -72.99002 | 23916 ft | 418 kts | 101° |
| 2026-05-05 23:44 | 42.72202 | -72.95098 | 23908 ft | 418 kts | 101° |
| 2026-05-05 23:44 | 42.71748 | -72.91194 | 23913 ft | 418 kts | 101° |
| 2026-05-05 23:45 | 42.71292 | -72.87286 | 23920 ft | 418 kts | 101° |
| 2026-05-05 23:45 | 42.70834 | -72.83375 | 23920 ft | 418 kts | 101° |
| 2026-05-05 23:45 | 42.70376 | -72.79481 | 23917 ft | 418 kts | 101° |
| 2026-05-05 23:45 | 42.69916 | -72.75576 | 23726 ft | 417 kts | 101° |
| 2026-05-05 23:46 | 42.69458 | -72.71689 | 23228 ft | 415 kts | 101° |
| 2026-05-05 23:46 | 42.69000 | -72.67828 | 22702 ft | 411 kts | 101° |
| 2026-05-05 23:46 | 42.68545 | -72.64002 | 22149 ft | 409 kts | 101° |
| 2026-05-05 23:46 | 42.68095 | -72.60258 | 21625 ft | 406 kts | 102° |
| 2026-05-05 23:47 | 42.67638 | -72.56489 | 21159 ft | 402 kts | 102° |
| 2026-05-05 23:47 | 42.67177 | -72.52709 | 20976 ft | 409 kts | 102° |
| 2026-05-05 23:47 | 42.66707 | -72.48870 | 20954 ft | 415 kts | 102° |
| 2026-05-05 23:47 | 42.66233 | -72.44988 | 20961 ft | 416 kts | 101° |
| 2026-05-05 23:48 | 42.65756 | -72.41094 | 20959 ft | 416 kts | 102° |
| 2026-05-05 23:48 | 42.65281 | -72.37223 | 20917 ft | 416 kts | 102° |
| 2026-05-05 23:48 | 42.64811 | -72.33404 | 20425 ft | 415 kts | 101° |
| 2026-05-05 23:48 | 42.64351 | -72.29544 | 19901 ft | 412 kts | 101° |
| 2026-05-05 23:49 | 42.63907 | -72.25725 | 19393 ft | 408 kts | 101° |
| 2026-05-05 23:49 | 42.63469 | -72.21933 | 18920 ft | 403 kts | 101° |
| 2026-05-05 23:49 | 42.63035 | -72.18200 | 18467 ft | 398 kts | 101° |
| 2026-05-05 23:49 | 42.62607 | -72.14529 | 17970 ft | 395 kts | 101° |
| 2026-05-05 23:50 | 42.62177 | -72.10856 | 17364 ft | 392 kts | 101° |
| 2026-05-05 23:50 | 42.61747 | -72.07202 | 16759 ft | 391 kts | 101° |
| 2026-05-05 23:50 | 42.61315 | -72.03570 | 16212 ft | 388 kts | 102° |
| 2026-05-05 23:50 | 42.60873 | -71.99965 | 15633 ft | 385 kts | 102° |
| 2026-05-05 23:51 | 42.60429 | -71.96376 | 15071 ft | 384 kts | 102° |
| 2026-05-05 23:51 | 42.59985 | -71.92810 | 14510 ft | 382 kts | 102° |
| 2026-05-05 23:51 | 42.59550 | -71.89312 | 14092 ft | 377 kts | 102° |
| 2026-05-05 23:51 | 42.59118 | -71.85855 | 13851 ft | 365 kts | 102° |
| 2026-05-05 23:52 | 42.58690 | -71.82493 | 13324 ft | 359 kts | 103° |
| 2026-05-05 23:52 | 42.58199 | -71.79185 | 12601 ft | 356 kts | 104° |
| 2026-05-05 23:52 | 42.57683 | -71.75906 | 11877 ft | 355 kts | 105° |
| 2026-05-05 23:52 | 42.57164 | -71.72636 | 11285 ft | 352 kts | 105° |
| 2026-05-05 23:53 | 42.56648 | -71.69386 | 11014 ft | 352 kts | 105° |
| 2026-05-05 23:53 | 42.56130 | -71.66136 | 10974 ft | 352 kts | 105° |
| 2026-05-05 23:53 | 42.55621 | -71.62937 | 10955 ft | 351 kts | 105° |
| 2026-05-05 23:53 | 42.55098 | -71.59714 | 10677 ft | 348 kts | 107° |
| 2026-05-05 23:54 | 42.54497 | -71.56600 | 10394 ft | 334 kts | 109° |
| 2026-05-05 23:54 | 42.53885 | -71.53616 | 9977 ft | 323 kts | 109° |
| 2026-05-05 23:54 | 42.53280 | -71.50709 | 9338 ft | 318 kts | 110° |
| 2026-05-05 23:54 | 42.52679 | -71.47827 | 8628 ft | 316 kts | 110° |
| 2026-05-05 23:55 | 42.52083 | -71.44971 | 8140 ft | 313 kts | 110° |
| 2026-05-05 23:55 | 42.51489 | -71.42126 | 7987 ft | 313 kts | 110° |
| 2026-05-05 23:55 | 42.50893 | -71.39274 | 7973 ft | 314 kts | 110° |
| 2026-05-05 23:55 | 42.50302 | -71.36417 | 7975 ft | 315 kts | 110° |
| 2026-05-05 23:56 | 42.49730 | -71.33573 | 7686 ft | 311 kts | 110° |
| 2026-05-05 23:56 | 42.49166 | -71.30745 | 6999 ft | 310 kts | 110° |
| 2026-05-05 23:56 | 42.48612 | -71.27968 | 6390 ft | 308 kts | 110° |
| 2026-05-05 23:56 | 42.48053 | -71.25170 | 6051 ft | 307 kts | 110° |
| 2026-05-05 23:57 | 42.47505 | -71.22424 | 6003 ft | 295 kts | 111° |
| 2026-05-05 23:57 | 42.46990 | -71.19828 | 5993 ft | 277 kts | 111° |
| 2026-05-05 23:57 | 42.46525 | -71.17320 | 5985 ft | 275 kts | 105° |
| 2026-05-05 23:57 | 42.46578 | -71.14709 | 5986 ft | 281 kts | 76° |
| 2026-05-05 23:58 | 42.47300 | -71.12231 | 5992 ft | 283 kts | 64° |
| 2026-05-05 23:58 | 42.48179 | -71.09845 | 5990 ft | 284 kts | 63° |
| 2026-05-05 23:58 | 42.49109 | -71.07512 | 5980 ft | 282 kts | 54° |
| 2026-05-05 23:58 | 42.50474 | -71.05755 | 5976 ft | 265 kts | 22° |
| 2026-05-05 23:59 | 42.52121 | -71.04763 | 5983 ft | 259 kts | 13° |
| 2026-05-05 23:59 | 42.53834 | -71.03931 | 5588 ft | 264 kts | 12° |
| 2026-05-05 23:59 | 42.55551 | -71.03116 | 5218 ft | 258 kts | 12° |
| 2026-05-05 23:59 | 42.57204 | -71.02315 | 5010 ft | 246 kts | 12° |
| 2026-05-06 00:00 | 42.58803 | -71.01527 | 4691 ft | 242 kts | 13° |
| 2026-05-06 00:00 | 42.60367 | -71.00732 | 4311 ft | 239 kts | 13° |
| 2026-05-06 00:00 | 42.61909 | -70.99943 | 3875 ft | 240 kts | 14° |
| 2026-05-06 00:00 | 42.63488 | -70.99130 | 3444 ft | 240 kts | 14° |
| 2026-05-06 00:01 | 42.64905 | -70.97882 | 3048 ft | 249 kts | 49° |
| 2026-05-06 00:01 | 42.65655 | -70.95839 | 2993 ft | 244 kts | 85° |
| 2026-05-06 00:01 | 42.65615 | -70.93620 | 3016 ft | 230 kts | 110° |
| 2026-05-06 00:01 | 42.65177 | -70.91581 | 2998 ft | 217 kts | 131° |
| 2026-05-06 00:02 | 42.64204 | -70.90241 | 3014 ft | 189 kts | 164° |
| 2026-05-06 00:02 | 42.63012 | -70.89574 | 3020 ft | 183 kts | 174° |
| 2026-05-06 00:02 | 42.61792 | -70.89082 | 3002 ft | 180 kts | 182° |
| 2026-05-06 00:02 | 42.60591 | -70.89074 | 3011 ft | 168 kts | 198° |
| 2026-05-06 00:03 | 42.59481 | -70.89410 | 3009 ft | 163 kts | 204° |
| 2026-05-06 00:03 | 42.58406 | -70.89879 | 3013 ft | 162 kts | 206° |
| 2026-05-06 00:03 | 42.57344 | -70.90396 | 3008 ft | 162 kts | 207° |
| 2026-05-06 00:03 | 42.56288 | -70.90913 | 3009 ft | 161 kts | 206° |
| 2026-05-06 00:04 | 42.55258 | -70.91408 | 3018 ft | 153 kts | 207° |
| 2026-05-06 00:04 | 42.54265 | -70.91884 | 3013 ft | 151 kts | 207° |
| 2026-05-06 00:04 | 42.53282 | -70.92359 | 3012 ft | 150 kts | 207° |
| 2026-05-06 00:04 | 42.52299 | -70.92837 | 3011 ft | 151 kts | 207° |
| 2026-05-06 00:05 | 42.50320 | -70.93803 | 2705 ft | 150 kts | 207° |
| 2026-05-06 00:05 | 42.49345 | -70.94276 | 2488 ft | 148 kts | 207° |
| 2026-05-06 00:05 | 42.48405 | -70.94732 | 2288 ft | 141 kts | 206° |
| 2026-05-06 00:06 | 42.47492 | -70.95172 | 2112 ft | 138 kts | 206° |
| 2026-05-06 00:06 | 42.46619 | -70.95597 | 1927 ft | 129 kts | 204° |
| 2026-05-06 00:06 | 42.45792 | -70.96000 | 1779 ft | 126 kts | 205° |
| 2026-05-06 00:06 | 42.44951 | -70.96412 | 1630 ft | 130 kts | 204° |
| 2026-05-06 00:07 | 42.44120 | -70.96827 | 1436 ft | 124 kts | 202° |
| 2026-05-06 00:07 | 42.43272 | -70.97238 | 1312 ft | 137 kts | 202° |
| 2026-05-06 00:07 | 42.42319 | -70.97656 | 1118 ft | 145 kts | 201° |
| 2026-05-06 00:07 | 42.41431 | -70.98103 | 889 ft | 129 kts | 205° |
| 2026-05-06 00:08 | 42.40637 | -70.98537 | 722 ft | 119 kts | 201° |
| 2026-05-06 00:08 | 42.39828 | -70.98888 | 578 ft | 127 kts | 201° |
| 2026-05-06 00:08 | 42.38976 | -70.99325 | 400 ft | 133 kts | 200° |
| 2026-05-06 00:08 | 42.38105 | -70.99740 | 220 ft | 130 kts | 200° |
| 2026-05-06 00:09 | 42.37279 | -71.00132 | 46 ft | 123 kts | 199° |
| 2026-05-06 00:09 | 42.36568 | -71.00473 | 31 ft | 88 kts | 200° |
| 2026-05-06 00:09 | 42.36160 | -71.00670 | 26 ft | 36 kts | 200° |
| 2026-05-06 00:09 | 42.35988 | -71.00800 | 29 ft | 27 kts | 230° |
| 2026-05-06 00:10 | 42.35875 | -71.00980 | 25 ft | 21 kts | 230° |
| 2026-05-06 00:10 | 42.35861 | -71.01003 | 27 ft | 1 kts | 233° |
| 2026-05-06 00:10 | 42.35857 | -71.01010 | 27 ft | 1 kts | 233° |
| 2026-05-06 00:10 | 42.35851 | -71.01021 | 28 ft | 2 kts | 236° |
| 2026-05-06 00:11 | 42.35841 | -71.01048 | 30 ft | 4 kts | 246° |
| 2026-05-06 00:11 | 42.35833 | -71.01101 | 30 ft | 8 kts | 266° |
| 2026-05-06 00:11 | 42.35839 | -71.01183 | 27 ft | 9 kts | 278° |
| 2026-05-06 00:11 | 42.35847 | -71.01257 | 29 ft | 8 kts | 277° |
| 2026-05-06 00:12 | 42.35856 | -71.01348 | 31 ft | 11 kts | 277° |
| 2026-05-06 00:12 | 42.35870 | -71.01461 | 32 ft | 12 kts | 281° |
| 2026-05-06 00:12 | 42.35881 | -71.01532 | 32 ft | 0 kts | 282° |
| 2026-05-06 00:13 | 42.35881 | -71.01534 | 32 ft | 1 kts | 282° |
| 2026-05-06 00:13 | 42.35883 | -71.01548 | 33 ft | 4 kts | 280° |
| 2026-05-06 00:13 | 42.35891 | -71.01608 | 33 ft | 5 kts | 290° |
| 2026-05-06 00:13 | 42.35927 | -71.01622 | 34 ft | 8 kts | 2° |
| 2026-05-06 00:14 | 42.35998 | -71.01594 | 32 ft | 14 kts | 19° |
| 2026-05-06 00:14 | 42.36105 | -71.01542 | 31 ft | 17 kts | 19° |
| 2026-05-06 00:14 | 42.36221 | -71.01486 | 28 ft | 19 kts | 19° |
| 2026-05-06 00:14 | 42.36352 | -71.01422 | 27 ft | 21 kts | 19° |
| 2026-05-06 00:15 | 42.36477 | -71.01359 | 27 ft | 18 kts | 23° |
| 2026-05-06 00:15 | 42.36594 | -71.01288 | 28 ft | 18 kts | 20° |
| 2026-05-06 00:15 | 42.36708 | -71.01244 | 30 ft | 17 kts | 14° |
| 2026-05-06 00:15 | 42.36814 | -71.01296 | 28 ft | 17 kts | 314° |
| 2026-05-06 00:16 | 42.36895 | -71.01407 | 30 ft | 16 kts | 315° |
| 2026-05-06 00:16 | 42.36975 | -71.01516 | 30 ft | 16 kts | 311° |
| 2026-05-06 00:16 | 42.36951 | -71.01616 | 30 ft | 13 kts | 214° |
| 2026-05-06 00:16 | 42.36866 | -71.01688 | 27 ft | 15 kts | 208° |
| 2026-05-06 00:17 | 42.36812 | -71.01768 | 26 ft | 0 kts | 242° |